sensor_id;sensor_type;location;lat;lon;timestamp;P1;durP1;ratioP1;P2;durP2;ratioP2
80961;SDS011;70424;55.154;14.722;2023-09-12T00:01:34;23.65;;;20.50;;
80961;SDS011;70424;55.154;14.722;2023-09-12T00:04:00;20.73;;;18.30;;
80961;SDS011;70424;55.154;14.722;2023-09-12T00:06:25;20.58;;;18.48;;
80961;SDS011;70424;55.154;14.722;2023-09-12T00:08:51;20.52;;;18.17;;
80961;SDS011;70424;55.154;14.722;2023-09-12T00:11:16;20.63;;;18.45;;
80961;SDS011;70424;55.154;14.722;2023-09-12T00:13:42;21.30;;;19.20;;
80961;SDS011;70424;55.154;14.722;2023-09-12T00:16:07;20.13;;;18.02;;
80961;SDS011;70424;55.154;14.722;2023-09-12T00:18:37;20.27;;;18.17;;
80961;SDS011;70424;55.154;14.722;2023-09-12T00:21:03;20.67;;;18.50;;
80961;SDS011;70424;55.154;14.722;2023-09-12T00:23:28;19.90;;;17.27;;
80961;SDS011;70424;55.154;14.722;2023-09-12T00:25:54;19.45;;;17.52;;
80961;SDS011;70424;55.154;14.722;2023-09-12T00:28:19;20.25;;;18.15;;
80961;SDS011;70424;55.154;14.722;2023-09-12T00:30:45;21.30;;;19.10;;
80961;SDS011;70424;55.154;14.722;2023-09-12T00:33:11;19.90;;;17.83;;
80961;SDS011;70424;55.154;14.722;2023-09-12T00:35:36;19.65;;;17.65;;
80961;SDS011;70424;55.154;14.722;2023-09-12T00:38:01;19.17;;;17.15;;
80961;SDS011;70424;55.154;14.722;2023-09-12T00:40:27;20.38;;;18.27;;
80961;SDS011;70424;55.154;14.722;2023-09-12T00:42:52;20.00;;;18.02;;
80961;SDS011;70424;55.154;14.722;2023-09-12T00:45:17;20.77;;;18.75;;
80961;SDS011;70424;55.154;14.722;2023-09-12T00:47:43;22.27;;;20.08;;
80961;SDS011;70424;55.154;14.722;2023-09-12T00:50:09;20.90;;;18.83;;
80961;SDS011;70424;55.154;14.722;2023-09-12T00:52:35;20.48;;;18.33;;
80961;SDS011;70424;55.154;14.722;2023-09-12T00:55:01;21.60;;;19.48;;
80961;SDS011;70424;55.154;14.722;2023-09-12T00:57:28;22.17;;;19.65;;
80961;SDS011;70424;55.154;14.722;2023-09-12T00:59:54;20.70;;;18.55;;
80961;SDS011;70424;55.154;14.722;2023-09-12T01:02:20;20.58;;;18.42;;
80961;SDS011;70424;55.154;14.722;2023-09-12T01:04:46;20.55;;;18.35;;
80961;SDS011;70424;55.154;14.722;2023-09-12T01:07:12;20.38;;;18.33;;
80961;SDS011;70424;55.154;14.722;2023-09-12T01:09:37;18.83;;;16.77;;
80961;SDS011;70424;55.154;14.722;2023-09-12T01:12:03;19.40;;;17.33;;
80961;SDS011;70424;55.154;14.722;2023-09-12T01:14:29;20.20;;;18.15;;
80961;SDS011;70424;55.154;14.722;2023-09-12T01:16:55;20.45;;;18.45;;
80961;SDS011;70424;55.154;14.722;2023-09-12T01:19:22;20.33;;;18.10;;
80961;SDS011;70424;55.154;14.722;2023-09-12T01:27:34;20.08;;;17.38;;
80961;SDS011;70424;55.154;14.722;2023-09-12T01:30:02;22.40;;;18.50;;
80961;SDS011;70424;55.154;14.722;2023-09-12T01:32:29;20.30;;;17.55;;
80961;SDS011;70424;55.154;14.722;2023-09-12T01:34:56;20.35;;;18.25;;
80961;SDS011;70424;55.154;14.722;2023-09-12T01:37:21;19.23;;;17.33;;
80961;SDS011;70424;55.154;14.722;2023-09-12T01:39:47;19.17;;;17.30;;
80961;SDS011;70424;55.154;14.722;2023-09-12T01:42:13;18.83;;;16.92;;
80961;SDS011;70424;55.154;14.722;2023-09-12T01:44:41;19.20;;;17.20;;
80961;SDS011;70424;55.154;14.722;2023-09-12T01:49:35;19.33;;;15.23;;
80961;SDS011;70424;55.154;14.722;2023-09-12T01:52:02;18.27;;;16.42;;
80961;SDS011;70424;55.154;14.722;2023-09-12T01:54:28;17.35;;;15.50;;
80961;SDS011;70424;55.154;14.722;2023-09-12T01:56:54;17.02;;;15.30;;
80961;SDS011;70424;55.154;14.722;2023-09-12T01:59:23;17.00;;;15.18;;
80961;SDS011;70424;55.154;14.722;2023-09-12T02:01:49;17.10;;;15.13;;
80961;SDS011;70424;55.154;14.722;2023-09-12T02:04:14;16.52;;;14.73;;
80961;SDS011;70424;55.154;14.722;2023-09-12T02:06:39;16.73;;;15.02;;
80961;SDS011;70424;55.154;14.722;2023-09-12T02:09:04;18.45;;;15.35;;
80961;SDS011;70424;55.154;14.722;2023-09-12T02:11:30;16.15;;;14.43;;
80961;SDS011;70424;55.154;14.722;2023-09-12T02:13:55;16.48;;;14.77;;
80961;SDS011;70424;55.154;14.722;2023-09-12T02:16:20;17.30;;;14.98;;
80961;SDS011;70424;55.154;14.722;2023-09-12T02:18:46;17.00;;;15.18;;
80961;SDS011;70424;55.154;14.722;2023-09-12T02:21:11;17.55;;;15.77;;
80961;SDS011;70424;55.154;14.722;2023-09-12T02:23:37;20.15;;;16.25;;
80961;SDS011;70424;55.154;14.722;2023-09-12T02:26:02;18.17;;;16.38;;
80961;SDS011;70424;55.154;14.722;2023-09-12T02:28:28;17.10;;;15.23;;
80961;SDS011;70424;55.154;14.722;2023-09-12T02:30:53;17.60;;;15.80;;
80961;SDS011;70424;55.154;14.722;2023-09-12T02:33:18;18.00;;;16.20;;
80961;SDS011;70424;55.154;14.722;2023-09-12T02:35:44;18.08;;;16.02;;
80961;SDS011;70424;55.154;14.722;2023-09-12T02:38:09;19.35;;;16.70;;
80961;SDS011;70424;55.154;14.722;2023-09-12T02:40:34;18.42;;;16.52;;
80961;SDS011;70424;55.154;14.722;2023-09-12T02:43:00;18.40;;;16.50;;
80961;SDS011;70424;55.154;14.722;2023-09-12T02:45:25;18.33;;;16.45;;
80961;SDS011;70424;55.154;14.722;2023-09-12T02:47:50;19.83;;;17.60;;
80961;SDS011;70424;55.154;14.722;2023-09-12T02:50:15;20.52;;;18.15;;
80961;SDS011;70424;55.154;14.722;2023-09-12T02:52:41;19.38;;;17.35;;
80961;SDS011;70424;55.154;14.722;2023-09-12T02:55:06;19.63;;;17.67;;
80961;SDS011;70424;55.154;14.722;2023-09-12T02:57:32;19.88;;;17.77;;
80961;SDS011;70424;55.154;14.722;2023-09-12T02:59:57;18.05;;;16.00;;
80961;SDS011;70424;55.154;14.722;2023-09-12T03:02:22;18.05;;;15.80;;
80961;SDS011;70424;55.154;14.722;2023-09-12T03:04:48;18.52;;;15.50;;
80961;SDS011;70424;55.154;14.722;2023-09-12T03:07:13;17.55;;;15.73;;
80961;SDS011;70424;55.154;14.722;2023-09-12T03:09:38;17.98;;;15.90;;
80961;SDS011;70424;55.154;14.722;2023-09-12T03:12:07;18.65;;;16.73;;
80961;SDS011;70424;55.154;14.722;2023-09-12T03:14:32;18.80;;;16.90;;
80961;SDS011;70424;55.154;14.722;2023-09-12T03:16:57;20.45;;;17.00;;
80961;SDS011;70424;55.154;14.722;2023-09-12T03:19:23;18.50;;;16.60;;
80961;SDS011;70424;55.154;14.722;2023-09-12T03:21:48;20.08;;;16.38;;
80961;SDS011;70424;55.154;14.722;2023-09-12T03:24:13;18.30;;;16.50;;
80961;SDS011;70424;55.154;14.722;2023-09-12T03:26:39;17.40;;;15.60;;
80961;SDS011;70424;55.154;14.722;2023-09-12T03:29:04;16.92;;;15.05;;
80961;SDS011;70424;55.154;14.722;2023-09-12T03:31:30;18.45;;;15.02;;
80961;SDS011;70424;55.154;14.722;2023-09-12T03:33:55;16.80;;;14.43;;
80961;SDS011;70424;55.154;14.722;2023-09-12T03:36:21;16.52;;;14.73;;
80961;SDS011;70424;55.154;14.722;2023-09-12T03:38:46;17.88;;;15.85;;
80961;SDS011;70424;55.154;14.722;2023-09-12T03:41:11;19.02;;;15.55;;
80961;SDS011;70424;55.154;14.722;2023-09-12T03:43:37;16.92;;;15.13;;
80961;SDS011;70424;55.154;14.722;2023-09-12T03:46:02;17.20;;;15.40;;
80961;SDS011;70424;55.154;14.722;2023-09-12T03:48:28;18.40;;;16.42;;
80961;SDS011;70424;55.154;14.722;2023-09-12T03:50:55;17.85;;;16.00;;
80961;SDS011;70424;55.154;14.722;2023-09-12T03:53:21;18.48;;;16.58;;
80961;SDS011;70424;55.154;14.722;2023-09-12T03:55:46;18.23;;;16.33;;
80961;SDS011;70424;55.154;14.722;2023-09-12T03:58:12;19.70;;;17.70;;
80961;SDS011;70424;55.154;14.722;2023-09-12T04:00:37;19.85;;;17.80;;
80961;SDS011;70424;55.154;14.722;2023-09-12T04:03:02;18.52;;;16.63;;
80961;SDS011;70424;55.154;14.722;2023-09-12T04:05:28;19.10;;;17.10;;
80961;SDS011;70424;55.154;14.722;2023-09-12T04:07:53;18.45;;;16.52;;
80961;SDS011;70424;55.154;14.722;2023-09-12T04:10:21;19.60;;;17.60;;
80961;SDS011;70424;55.154;14.722;2023-09-12T04:12:47;20.05;;;17.95;;
80961;SDS011;70424;55.154;14.722;2023-09-12T04:15:13;21.27;;;19.05;;
80961;SDS011;70424;55.154;14.722;2023-09-12T04:17:38;19.95;;;17.90;;
80961;SDS011;70424;55.154;14.722;2023-09-12T04:20:03;22.23;;;19.13;;
80961;SDS011;70424;55.154;14.722;2023-09-12T04:22:32;25.70;;;19.15;;
80961;SDS011;70424;55.154;14.722;2023-09-12T04:24:58;25.75;;;19.70;;
80961;SDS011;70424;55.154;14.722;2023-09-12T04:27:23;21.80;;;18.27;;
80961;SDS011;70424;55.154;14.722;2023-09-12T04:29:49;25.40;;;18.77;;
80961;SDS011;70424;55.154;14.722;2023-09-12T04:32:14;22.92;;;18.42;;
80961;SDS011;70424;55.154;14.722;2023-09-12T04:34:44;23.23;;;18.47;;
80961;SDS011;70424;55.154;14.722;2023-09-12T04:37:09;21.35;;;17.38;;
80961;SDS011;70424;55.154;14.722;2023-09-12T04:39:34;25.25;;;17.98;;
80961;SDS011;70424;55.154;14.722;2023-09-12T04:41:59;20.05;;;16.80;;
80961;SDS011;70424;55.154;14.722;2023-09-12T04:44:25;19.77;;;17.40;;
80961;SDS011;70424;55.154;14.722;2023-09-12T04:46:50;19.73;;;17.35;;
80961;SDS011;70424;55.154;14.722;2023-09-12T04:49:15;23.52;;;17.20;;
80961;SDS011;70424;55.154;14.722;2023-09-12T04:51:41;20.77;;;17.38;;
80961;SDS011;70424;55.154;14.722;2023-09-12T04:54:07;21.40;;;17.13;;
80961;SDS011;70424;55.154;14.722;2023-09-12T04:56:33;19.27;;;16.98;;
80961;SDS011;70424;55.154;14.722;2023-09-12T04:58:58;19.75;;;16.15;;
80961;SDS011;70424;55.154;14.722;2023-09-12T05:01:23;20.42;;;18.15;;
80961;SDS011;70424;55.154;14.722;2023-09-12T05:03:50;19.40;;;17.27;;
80961;SDS011;70424;55.154;14.722;2023-09-12T05:06:15;19.98;;;16.10;;
80961;SDS011;70424;55.154;14.722;2023-09-12T05:08:41;20.83;;;16.42;;
80961;SDS011;70424;55.154;14.722;2023-09-12T05:11:06;22.02;;;17.73;;
80961;SDS011;70424;55.154;14.722;2023-09-12T05:13:31;24.05;;;16.95;;
80961;SDS011;70424;55.154;14.722;2023-09-12T05:15:57;21.17;;;17.25;;
80961;SDS011;70424;55.154;14.722;2023-09-12T05:18:22;22.63;;;16.10;;
80961;SDS011;70424;55.154;14.722;2023-09-12T05:20:48;21.67;;;16.20;;
80961;SDS011;70424;55.154;14.722;2023-09-12T05:23:13;22.55;;;16.42;;
80961;SDS011;70424;55.154;14.722;2023-09-12T05:25:39;20.55;;;15.65;;
80961;SDS011;70424;55.154;14.722;2023-09-12T05:28:04;21.30;;;15.52;;
80961;SDS011;70424;55.154;14.722;2023-09-12T05:30:29;23.35;;;16.20;;
80961;SDS011;70424;55.154;14.722;2023-09-12T05:32:55;22.42;;;16.40;;
80961;SDS011;70424;55.154;14.722;2023-09-12T05:35:20;29.30;;;15.68;;
80961;SDS011;70424;55.154;14.722;2023-09-12T05:37:46;29.25;;;16.90;;
80961;SDS011;70424;55.154;14.722;2023-09-12T05:40:11;28.27;;;16.75;;
80961;SDS011;70424;55.154;14.722;2023-09-12T05:42:36;21.48;;;16.33;;
80961;SDS011;70424;55.154;14.722;2023-09-12T05:45:02;35.45;;;18.27;;
80961;SDS011;70424;55.154;14.722;2023-09-12T05:47:27;26.98;;;16.48;;
80961;SDS011;70424;55.154;14.722;2023-09-12T05:49:53;20.95;;;16.75;;
80961;SDS011;70424;55.154;14.722;2023-09-12T05:52:18;22.02;;;16.10;;
80961;SDS011;70424;55.154;14.722;2023-09-12T05:54:44;19.25;;;16.50;;
80961;SDS011;70424;55.154;14.722;2023-09-12T05:57:09;18.75;;;16.67;;
80961;SDS011;70424;55.154;14.722;2023-09-12T05:59:36;20.63;;;16.85;;
80961;SDS011;70424;55.154;14.722;2023-09-12T06:02:03;19.40;;;17.30;;
80961;SDS011;70424;55.154;14.722;2023-09-12T06:04:29;17.95;;;16.15;;
80961;SDS011;70424;55.154;14.722;2023-09-12T06:06:55;18.83;;;16.98;;
80961;SDS011;70424;55.154;14.722;2023-09-12T06:09:20;19.13;;;17.20;;
80961;SDS011;70424;55.154;14.722;2023-09-12T06:11:45;18.17;;;16.27;;
80961;SDS011;70424;55.154;14.722;2023-09-12T06:14:11;19.55;;;17.63;;
80961;SDS011;70424;55.154;14.722;2023-09-12T06:16:36;20.08;;;18.08;;
80961;SDS011;70424;55.154;14.722;2023-09-12T06:19:01;20.67;;;18.35;;
80961;SDS011;70424;55.154;14.722;2023-09-12T06:21:27;20.42;;;18.33;;
80961;SDS011;70424;55.154;14.722;2023-09-12T06:24:07;20.30;;;18.13;;
80961;SDS011;70424;55.154;14.722;2023-09-12T06:26:35;19.52;;;17.52;;
80961;SDS011;70424;55.154;14.722;2023-09-12T06:29:00;18.98;;;17.05;;
80961;SDS011;70424;55.154;14.722;2023-09-12T06:31:25;18.80;;;16.90;;
80961;SDS011;70424;55.154;14.722;2023-09-12T06:33:51;16.50;;;14.85;;
80961;SDS011;70424;55.154;14.722;2023-09-12T06:36:16;16.42;;;14.80;;
80961;SDS011;70424;55.154;14.722;2023-09-12T06:38:41;16.58;;;14.98;;
80961;SDS011;70424;55.154;14.722;2023-09-12T06:41:07;16.55;;;15.00;;
80961;SDS011;70424;55.154;14.722;2023-09-12T06:43:32;17.65;;;15.85;;
80961;SDS011;70424;55.154;14.722;2023-09-12T06:45:57;16.88;;;15.18;;
80961;SDS011;70424;55.154;14.722;2023-09-12T06:48:22;16.92;;;15.30;;
80961;SDS011;70424;55.154;14.722;2023-09-12T06:50:48;17.80;;;16.05;;
80961;SDS011;70424;55.154;14.722;2023-09-12T06:53:15;20.67;;;16.23;;
80961;SDS011;70424;55.154;14.722;2023-09-12T06:55:40;18.60;;;16.70;;
80961;SDS011;70424;55.154;14.722;2023-09-12T06:58:06;18.85;;;16.90;;
80961;SDS011;70424;55.154;14.722;2023-09-12T07:00:31;20.10;;;18.00;;
80961;SDS011;70424;55.154;14.722;2023-09-12T07:02:56;19.20;;;17.30;;
80961;SDS011;70424;55.154;14.722;2023-09-12T07:05:22;20.33;;;18.42;;
80961;SDS011;70424;55.154;14.722;2023-09-12T07:07:47;19.88;;;17.88;;
80961;SDS011;70424;55.154;14.722;2023-09-12T07:10:12;20.92;;;18.83;;
80961;SDS011;70424;55.154;14.722;2023-09-12T07:12:38;21.05;;;18.42;;
80961;SDS011;70424;55.154;14.722;2023-09-12T07:15:03;20.02;;;18.05;;
80961;SDS011;70424;55.154;14.722;2023-09-12T07:17:29;20.40;;;18.42;;
80961;SDS011;70424;55.154;14.722;2023-09-12T07:19:54;21.50;;;17.67;;
80961;SDS011;70424;55.154;14.722;2023-09-12T07:22:20;18.52;;;16.77;;
80961;SDS011;70424;55.154;14.722;2023-09-12T07:24:45;18.48;;;16.58;;
80961;SDS011;70424;55.154;14.722;2023-09-12T07:27:10;18.05;;;16.25;;
80961;SDS011;70424;55.154;14.722;2023-09-12T07:29:36;17.40;;;15.23;;
80961;SDS011;70424;55.154;14.722;2023-09-12T07:32:01;17.30;;;14.95;;
80961;SDS011;70424;55.154;14.722;2023-09-12T07:34:27;16.92;;;14.45;;
80961;SDS011;70424;55.154;14.722;2023-09-12T07:36:52;18.80;;;15.30;;
80961;SDS011;70424;55.154;14.722;2023-09-12T07:39:18;16.58;;;14.82;;
80961;SDS011;70424;55.154;14.722;2023-09-12T07:41:44;17.50;;;15.05;;
80961;SDS011;70424;55.154;14.722;2023-09-12T07:44:09;17.73;;;14.63;;
80961;SDS011;70424;55.154;14.722;2023-09-12T07:46:40;18.65;;;14.68;;
80961;SDS011;70424;55.154;14.722;2023-09-12T07:49:06;15.90;;;14.18;;
80961;SDS011;70424;55.154;14.722;2023-09-12T07:51:33;17.25;;;15.48;;
80961;SDS011;70424;55.154;14.722;2023-09-12T07:53:58;17.45;;;13.60;;
80961;SDS011;70424;55.154;14.722;2023-09-12T07:56:24;15.50;;;13.40;;
80961;SDS011;70424;55.154;14.722;2023-09-12T07:58:49;15.88;;;13.10;;
80961;SDS011;70424;55.154;14.722;2023-09-12T08:01:14;15.05;;;12.93;;
80961;SDS011;70424;55.154;14.722;2023-09-12T08:03:41;15.82;;;13.63;;
80961;SDS011;70424;55.154;14.722;2023-09-12T08:06:07;18.38;;;12.80;;
80961;SDS011;70424;55.154;14.722;2023-09-12T08:08:32;16.92;;;12.35;;
80961;SDS011;70424;55.154;14.722;2023-09-12T08:10:58;14.88;;;12.30;;
80961;SDS011;70424;55.154;14.722;2023-09-12T08:13:27;16.08;;;12.63;;
80961;SDS011;70424;55.154;14.722;2023-09-12T08:15:53;14.68;;;11.50;;
80961;SDS011;70424;55.154;14.722;2023-09-12T08:18:19;15.30;;;12.30;;
80961;SDS011;70424;55.154;14.722;2023-09-12T08:20:44;17.45;;;12.00;;
80961;SDS011;70424;55.154;14.722;2023-09-12T08:23:10;17.65;;;11.95;;
80961;SDS011;70424;55.154;14.722;2023-09-12T08:25:35;19.83;;;13.38;;
80961;SDS011;70424;55.154;14.722;2023-09-12T08:28:01;13.52;;;11.73;;
80961;SDS011;70424;55.154;14.722;2023-09-12T08:30:26;15.40;;;12.93;;
80961;SDS011;70424;55.154;14.722;2023-09-12T08:32:54;14.50;;;12.90;;
80961;SDS011;70424;55.154;14.722;2023-09-12T08:35:19;15.80;;;13.38;;
80961;SDS011;70424;55.154;14.722;2023-09-12T08:37:44;18.05;;;13.93;;
80961;SDS011;70424;55.154;14.722;2023-09-12T08:40:10;15.27;;;13.40;;
80961;SDS011;70424;55.154;14.722;2023-09-12T08:42:39;17.65;;;14.10;;
80961;SDS011;70424;55.154;14.722;2023-09-12T08:45:07;16.40;;;12.68;;
80961;SDS011;70424;55.154;14.722;2023-09-12T08:47:39;20.13;;;14.23;;
80961;SDS011;70424;55.154;14.722;2023-09-12T08:50:07;18.00;;;12.50;;
80961;SDS011;70424;55.154;14.722;2023-09-12T08:52:38;16.13;;;13.13;;
80961;SDS011;70424;55.154;14.722;2023-09-12T08:55:04;15.32;;;12.35;;
80961;SDS011;70424;55.154;14.722;2023-09-12T08:57:30;16.25;;;12.73;;
80961;SDS011;70424;55.154;14.722;2023-09-12T08:59:58;14.60;;;12.23;;
80961;SDS011;70424;55.154;14.722;2023-09-12T09:02:27;19.92;;;12.20;;
80961;SDS011;70424;55.154;14.722;2023-09-12T09:04:53;15.80;;;11.88;;
80961;SDS011;70424;55.154;14.722;2023-09-12T09:07:20;19.67;;;12.38;;
80961;SDS011;70424;55.154;14.722;2023-09-12T09:09:46;17.27;;;12.20;;
80961;SDS011;70424;55.154;14.722;2023-09-12T09:12:13;16.77;;;11.73;;
80961;SDS011;70424;55.154;14.722;2023-09-12T09:14:39;18.08;;;11.13;;
80961;SDS011;70424;55.154;14.722;2023-09-12T09:17:04;17.63;;;13.38;;
80961;SDS011;70424;55.154;14.722;2023-09-12T09:19:48;17.13;;;12.98;;
80961;SDS011;70424;55.154;14.722;2023-09-12T09:22:13;19.35;;;13.25;;
80961;SDS011;70424;55.154;14.722;2023-09-12T09:24:38;15.77;;;12.30;;
80961;SDS011;70424;55.154;14.722;2023-09-12T09:27:04;16.88;;;12.68;;
80961;SDS011;70424;55.154;14.722;2023-09-12T09:29:29;20.77;;;13.23;;
80961;SDS011;70424;55.154;14.722;2023-09-12T09:31:57;19.45;;;13.95;;
80961;SDS011;70424;55.154;14.722;2023-09-12T09:34:24;18.45;;;13.18;;
80961;SDS011;70424;55.154;14.722;2023-09-12T09:36:52;18.25;;;13.02;;
80961;SDS011;70424;55.154;14.722;2023-09-12T09:39:25;22.20;;;13.60;;
80961;SDS011;70424;55.154;14.722;2023-09-12T09:41:54;18.13;;;15.32;;
80961;SDS011;70424;55.154;14.722;2023-09-12T09:44:21;24.58;;;15.52;;
80961;SDS011;70424;55.154;14.722;2023-09-12T09:49:18;17.95;;;15.80;;
80961;SDS011;70424;55.154;14.722;2023-09-12T09:51:44;18.45;;;14.85;;
80961;SDS011;70424;55.154;14.722;2023-09-12T09:54:11;20.92;;;14.20;;
80961;SDS011;70424;55.154;14.722;2023-09-12T09:56:46;18.98;;;15.25;;
80961;SDS011;70424;55.154;14.722;2023-09-12T09:59:14;17.67;;;14.60;;
80961;SDS011;70424;55.154;14.722;2023-09-12T10:01:41;22.30;;;15.55;;
80961;SDS011;70424;55.154;14.722;2023-09-12T10:04:08;19.92;;;14.43;;
80961;SDS011;70424;55.154;14.722;2023-09-12T10:06:35;18.67;;;15.70;;
80961;SDS011;70424;55.154;14.722;2023-09-12T10:09:02;16.88;;;14.52;;
80961;SDS011;70424;55.154;14.722;2023-09-12T10:11:32;17.80;;;15.30;;
80961;SDS011;70424;55.154;14.722;2023-09-12T10:13:59;20.17;;;17.02;;
80961;SDS011;70424;55.154;14.722;2023-09-12T10:16:35;21.08;;;16.42;;
80961;SDS011;70424;55.154;14.722;2023-09-12T10:19:22;19.45;;;16.23;;
80961;SDS011;70424;55.154;14.722;2023-09-12T10:22:09;22.58;;;17.67;;
80961;SDS011;70424;55.154;14.722;2023-09-12T10:24:36;20.73;;;17.25;;
80961;SDS011;70424;55.154;14.722;2023-09-12T10:27:03;21.38;;;17.25;;
80961;SDS011;70424;55.154;14.722;2023-09-12T10:29:30;21.05;;;18.40;;
80961;SDS011;70424;55.154;14.722;2023-09-12T10:31:56;23.52;;;18.25;;
80961;SDS011;70424;55.154;14.722;2023-09-12T10:34:21;24.23;;;19.75;;
80961;SDS011;70424;55.154;14.722;2023-09-12T10:36:49;24.13;;;18.90;;
80961;SDS011;70424;55.154;14.722;2023-09-12T10:39:16;21.27;;;18.87;;
80961;SDS011;70424;55.154;14.722;2023-09-12T10:41:44;23.48;;;18.67;;
80961;SDS011;70424;55.154;14.722;2023-09-12T10:44:14;23.65;;;18.77;;
80961;SDS011;70424;55.154;14.722;2023-09-12T10:46:41;21.83;;;18.35;;
80961;SDS011;70424;55.154;14.722;2023-09-12T10:49:07;22.42;;;18.70;;
80961;SDS011;70424;55.154;14.722;2023-09-12T10:51:34;22.52;;;19.92;;
80961;SDS011;70424;55.154;14.722;2023-09-12T10:54:03;25.23;;;19.67;;
80961;SDS011;70424;55.154;14.722;2023-09-12T10:56:29;23.63;;;19.42;;
80961;SDS011;70424;55.154;14.722;2023-09-12T11:01:29;23.55;;;21.05;;
80961;SDS011;70424;55.154;14.722;2023-09-12T11:03:58;24.52;;;20.02;;
80961;SDS011;70424;55.154;14.722;2023-09-12T11:06:30;23.77;;;19.55;;
80961;SDS011;70424;55.154;14.722;2023-09-12T11:11:43;22.75;;;19.75;;
80961;SDS011;70424;55.154;14.722;2023-09-12T11:14:09;24.10;;;21.00;;
80961;SDS011;70424;55.154;14.722;2023-09-12T11:16:35;22.23;;;19.92;;
80961;SDS011;70424;55.154;14.722;2023-09-12T11:19:17;22.00;;;19.23;;
80961;SDS011;70424;55.154;14.722;2023-09-12T11:21:44;22.00;;;19.67;;
80961;SDS011;70424;55.154;14.722;2023-09-12T11:24:10;24.17;;;21.00;;
80961;SDS011;70424;55.154;14.722;2023-09-12T11:26:51;28.15;;;23.25;;
80961;SDS011;70424;55.154;14.722;2023-09-12T11:29:39;27.10;;;23.65;;
80961;SDS011;70424;55.154;14.722;2023-09-12T11:32:06;27.88;;;23.13;;
80961;SDS011;70424;55.154;14.722;2023-09-12T11:37:02;30.63;;;25.17;;
80961;SDS011;70424;55.154;14.722;2023-09-12T11:39:30;33.45;;;25.27;;
80961;SDS011;70424;55.154;14.722;2023-09-12T11:41:57;30.85;;;24.85;;
80961;SDS011;70424;55.154;14.722;2023-09-12T11:44:24;30.63;;;25.92;;
80961;SDS011;70424;55.154;14.722;2023-09-12T11:46:51;37.15;;;28.00;;
80961;SDS011;70424;55.154;14.722;2023-09-12T11:49:17;32.60;;;25.35;;
80961;SDS011;70424;55.154;14.722;2023-09-12T11:51:52;36.35;;;27.00;;
80961;SDS011;70424;55.154;14.722;2023-09-12T11:54:19;36.80;;;24.77;;
80961;SDS011;70424;55.154;14.722;2023-09-12T11:56:49;36.90;;;26.67;;
80961;SDS011;70424;55.154;14.722;2023-09-12T11:59:21;39.40;;;29.65;;
80961;SDS011;70424;55.154;14.722;2023-09-12T12:01:50;41.85;;;29.98;;
80961;SDS011;70424;55.154;14.722;2023-09-12T12:04:16;44.45;;;31.83;;
80961;SDS011;70424;55.154;14.722;2023-09-12T12:06:41;41.05;;;31.75;;
80961;SDS011;70424;55.154;14.722;2023-09-12T12:09:08;47.67;;;33.88;;
80961;SDS011;70424;55.154;14.722;2023-09-12T12:11:34;44.40;;;32.60;;
80961;SDS011;70424;55.154;14.722;2023-09-12T12:17:04;41.42;;;31.35;;
80961;SDS011;70424;55.154;14.722;2023-09-12T12:19:31;44.75;;;31.98;;
80961;SDS011;70424;55.154;14.722;2023-09-12T12:21:56;44.33;;;31.30;;
80961;SDS011;70424;55.154;14.722;2023-09-12T12:24:21;42.22;;;31.27;;
80961;SDS011;70424;55.154;14.722;2023-09-12T12:26:47;43.53;;;29.52;;
80961;SDS011;70424;55.154;14.722;2023-09-12T12:29:12;46.10;;;31.13;;
80961;SDS011;70424;55.154;14.722;2023-09-12T12:31:38;45.83;;;32.03;;
80961;SDS011;70424;55.154;14.722;2023-09-12T12:34:04;48.50;;;35.35;;
80961;SDS011;70424;55.154;14.722;2023-09-12T12:36:30;49.43;;;34.93;;
80961;SDS011;70424;55.154;14.722;2023-09-12T12:38:56;48.03;;;34.70;;
80961;SDS011;70424;55.154;14.722;2023-09-12T12:41:25;51.08;;;35.67;;
80961;SDS011;70424;55.154;14.722;2023-09-12T12:43:52;50.20;;;35.63;;
80961;SDS011;70424;55.154;14.722;2023-09-12T12:46:19;51.45;;;35.95;;
80961;SDS011;70424;55.154;14.722;2023-09-12T12:48:46;49.97;;;35.60;;
80961;SDS011;70424;55.154;14.722;2023-09-12T12:53:49;45.25;;;32.22;;
80961;SDS011;70424;55.154;14.722;2023-09-12T12:56:23;46.83;;;34.53;;
80961;SDS011;70424;55.154;14.722;2023-09-12T12:58:52;45.17;;;32.72;;
80961;SDS011;70424;55.154;14.722;2023-09-12T13:01:20;47.97;;;33.65;;
80961;SDS011;70424;55.154;14.722;2023-09-12T13:03:46;46.75;;;32.53;;
80961;SDS011;70424;55.154;14.722;2023-09-12T13:06:11;47.78;;;33.63;;
80961;SDS011;70424;55.154;14.722;2023-09-12T13:08:40;44.88;;;32.53;;
80961;SDS011;70424;55.154;14.722;2023-09-12T13:11:07;43.17;;;30.65;;
80961;SDS011;70424;55.154;14.722;2023-09-12T13:13:33;39.10;;;28.38;;
80961;SDS011;70424;55.154;14.722;2023-09-12T13:15:59;35.40;;;26.42;;
80961;SDS011;70424;55.154;14.722;2023-09-12T13:18:24;39.83;;;29.45;;
80961;SDS011;70424;55.154;14.722;2023-09-12T13:20:50;36.22;;;26.27;;
80961;SDS011;70424;55.154;14.722;2023-09-12T13:23:15;43.25;;;30.75;;
80961;SDS011;70424;55.154;14.722;2023-09-12T13:25:40;40.22;;;29.27;;
80961;SDS011;70424;55.154;14.722;2023-09-12T13:28:06;41.90;;;30.38;;
80961;SDS011;70424;55.154;14.722;2023-09-12T13:30:31;37.50;;;28.48;;
80961;SDS011;70424;55.154;14.722;2023-09-12T13:32:56;38.13;;;28.67;;
80961;SDS011;70424;55.154;14.722;2023-09-12T13:35:22;35.28;;;27.13;;
80961;SDS011;70424;55.154;14.722;2023-09-12T13:37:47;34.75;;;26.52;;
80961;SDS011;70424;55.154;14.722;2023-09-12T13:40:12;33.22;;;25.20;;
80961;SDS011;70424;55.154;14.722;2023-09-12T13:42:38;31.05;;;23.92;;
80961;SDS011;70424;55.154;14.722;2023-09-12T13:45:04;29.15;;;22.85;;
80961;SDS011;70424;55.154;14.722;2023-09-12T13:47:30;27.65;;;21.05;;
80961;SDS011;70424;55.154;14.722;2023-09-12T13:49:57;32.05;;;20.70;;
80961;SDS011;70424;55.154;14.722;2023-09-12T13:52:22;22.95;;;18.88;;
80961;SDS011;70424;55.154;14.722;2023-09-12T13:54:48;23.55;;;19.58;;
80961;SDS011;70424;55.154;14.722;2023-09-12T13:57:15;22.38;;;18.20;;
80961;SDS011;70424;55.154;14.722;2023-09-12T13:59:41;23.80;;;19.23;;
80961;SDS011;70424;55.154;14.722;2023-09-12T14:02:06;24.95;;;20.42;;
80961;SDS011;70424;55.154;14.722;2023-09-12T14:04:32;25.42;;;18.95;;
80961;SDS011;70424;55.154;14.722;2023-09-12T14:06:59;23.50;;;18.98;;
80961;SDS011;70424;55.154;14.722;2023-09-12T14:09:25;23.80;;;19.77;;
80961;SDS011;70424;55.154;14.722;2023-09-12T14:11:50;23.40;;;18.83;;
80961;SDS011;70424;55.154;14.722;2023-09-12T14:14:15;22.23;;;19.27;;
80961;SDS011;70424;55.154;14.722;2023-09-12T14:16:42;22.48;;;19.17;;
80961;SDS011;70424;55.154;14.722;2023-09-12T14:19:08;25.20;;;21.33;;
80961;SDS011;70424;55.154;14.722;2023-09-12T14:21:33;27.02;;;20.30;;
80961;SDS011;70424;55.154;14.722;2023-09-12T14:23:58;25.33;;;20.27;;
80961;SDS011;70424;55.154;14.722;2023-09-12T14:26:24;23.38;;;19.35;;
80961;SDS011;70424;55.154;14.722;2023-09-12T14:28:49;26.30;;;20.63;;